Time;durP1;ratioP1;P1;durP2;ratioP2;P2;SDS_P1;SDS_P2;PMS_P1;PMS_P2;Temp;Humidity;BMP_temperature;BMP_pressure;BME280_temperature;BME280_humidity;BME280_pressure;Samples;Min_cycle;Max_cycle;Signal;HPM_P1;HPM_P2
2024/02/09 00:01:13;;;;;;;10.67;6.27;;;;;;;9.99;77.14;94310.66;5028139;28;20976;-68
2024/02/09 00:03:38;;;;;;;14.13;6.90;;;;;;;9.91;77.58;94302.56;5028417;28;20486;-68
2024/02/09 00:06:05;;;;;;;13.13;7.13;;;;;;;9.81;78.36;94298.97;5028692;28;20241;-68
2024/02/09 00:08:31;;;;;;;9.90;6.13;;;;;;;9.86;78.22;94297.66;5028841;28;20166;-68
2024/02/09 00:10:57;;;;;;;11.47;5.83;;;;;;;9.88;77.88;94298.38;5028436;28;21152;-67
2024/02/09 00:13:22;;;;;;;13.20;7.30;;;;;;;9.84;78.61;94294.31;5028461;28;20187;-68
2024/02/09 00:15:48;;;;;;;8.47;6.00;;;;;;;9.92;78.34;94294.59;5028356;28;20574;-69
2024/02/09 00:18:17;;;;;;;9.53;5.80;;;;;;;10.00;77.80;94298.41;5028700;28;20168;-67
2024/02/09 00:20:47;;;;;;;7.43;6.27;;;;;;;10.00;77.92;94293.19;5028264;28;20670;-68
2024/02/09 00:23:13;;;;;;;17.93;7.97;;;;;;;9.90;77.66;94280.75;5028287;28;20445;-69
2024/02/09 00:25:38;;;;;;;10.57;7.60;;;;;;;9.86;78.13;94292.41;5028594;28;20437;-67
2024/02/09 00:28:05;;;;;;;13.23;6.33;;;;;;;9.91;78.11;94281.59;5027948;28;20414;-67
2024/02/09 00:30:30;;;;;;;8.13;7.03;;;;;;;9.98;78.13;94287.22;5028191;28;20172;-66
2024/02/09 00:32:58;;;;;;;10.07;6.03;;;;;;;9.69;78.98;94277.13;5027805;28;20425;-68
2024/02/09 00:35:27;;;;;;;12.03;6.13;;;;;;;9.75;79.18;94268.81;5039013;28;20195;-68
2024/02/09 00:37:55;;;;;;;7.33;6.33;;;;;;;9.63;79.62;94262.69;5047721;28;20456;-68
2024/02/09 00:40:22;;;;;;;6.33;5.37;;;;;;;9.69;80.13;94256.19;5047842;28;20419;-68
2024/02/09 00:42:48;;;;;;;15.20;6.13;;;;;;;9.63;79.62;94246.16;5047691;28;20413;-68
2024/02/09 00:45:14;;;;;;;14.43;8.00;;;;;;;9.40;80.73;94256.56;5047866;28;20479;-67
2024/02/09 00:47:39;;;;;;;12.33;8.07;;;;;;;9.51;80.16;94240.88;5047645;28;20417;-67
2024/02/09 00:50:06;;;;;;;13.07;8.13;;;;;;;9.74;79.14;94239.16;5047241;28;20624;-68
2024/02/09 00:52:31;;;;;;;12.70;6.73;;;;;;;9.65;79.91;94234.63;5048000;28;20653;-67
2024/02/09 00:54:56;;;;;;;9.93;5.70;;;;;;;9.53;80.65;94236.38;5047238;28;20452;-68
2024/02/09 00:57:22;;;;;;;11.63;7.47;;;;;;;9.69;79.97;94224.75;5047889;28;20166;-68
2024/02/09 00:59:47;;;;;;;14.63;6.70;;;;;;;9.87;79.28;94225.13;5047450;28;20185;-68
2024/02/09 01:02:14;;;;;;;19.00;6.33;;;;;;;9.84;79.57;94228.81;5047180;28;20229;-68
2024/02/09 01:04:39;;;;;;;8.57;5.40;;;;;;;9.87;78.99;94222.50;5047375;28;20268;-67
2024/02/09 01:07:09;;;;;;;11.80;5.97;;;;;;;9.47;80.60;94215.03;5047137;28;20543;-68
2024/02/09 01:09:37;;;;;;;16.07;6.27;;;;;;;9.74;79.54;94212.97;5047277;28;20376;-68
2024/02/09 02:44:51;;;;;;;4.80;2.60;;;;;;;10.50;77.64;94142.47;5045791;28;20478;-68
2024/02/09 02:47:16;;;;;;;4.93;2.27;;;;;;;10.44;77.45;94140.38;5045825;28;20888;-67
2024/02/09 03:06:10;;;;;;;6.50;4.23;;;;;;;10.29;78.85;94113.56;5046336;28;20548;-66
2024/02/09 03:08:36;;;;;;;11.63;4.23;;;;;;;10.23;79.05;94113.16;5046922;28;20507;-68
2024/02/09 03:11:03;;;;;;;6.90;3.43;;;;;;;10.26;79.05;94113.78;5045794;28;20169;-68
2024/02/09 03:13:29;;;;;;;6.20;3.30;;;;;;;10.21;79.23;94115.09;5045807;28;20277;-67
2024/02/09 03:15:54;;;;;;;6.40;4.13;;;;;;;10.25;79.17;94106.03;5045820;28;20606;-67
2024/02/09 03:18:21;;;;;;;4.20;3.00;;;;;;;10.26;79.35;94103.28;5045861;28;20416;-68
2024/02/09 03:20:46;;;;;;;7.87;3.67;;;;;;;10.26;78.90;94105.91;5045574;28;20261;-67
2024/02/09 03:23:16;;;;;;;4.33;3.70;;;;;;;10.27;79.17;94118.06;5045821;28;20485;-67
2024/02/09 03:25:42;;;;;;;5.77;3.60;;;;;;;10.29;79.38;94138.94;5046163;28;20183;-67
2024/02/09 03:28:08;;;;;;;5.97;4.10;;;;;;;10.19;79.80;94144.06;5052461;28;20413;-66
2024/02/09 03:30:34;;;;;;;12.10;5.57;;;;;;;10.28;79.83;94132.00;5054188;28;20177;-67
2024/02/09 03:32:59;;;;;;;5.20;3.00;;;;;;;10.29;80.00;94133.69;5051719;28;20405;-67
2024/02/09 03:35:25;;;;;;;8.80;3.13;;;;;;;10.28;79.85;94130.25;5047855;28;20570;-67
2024/02/09 03:37:50;;;;;;;7.23;3.70;;;;;;;10.21;80.43;94120.34;5048863;28;20179;-67
2024/02/09 03:40:16;;;;;;;5.83;3.80;;;;;;;10.26;80.66;94134.75;5049182;28;20225;-67
2024/02/09 03:42:41;;;;;;;6.50;2.97;;;;;;;10.23;80.44;94123.66;5048864;28;20182;-67
2024/02/09 03:45:07;;;;;;;4.70;3.80;;;;;;;10.24;80.48;94130.59;5048582;28;20261;-68
2024/02/09 03:47:33;;;;;;;5.83;3.07;;;;;;;10.33;79.89;94135.13;5029963;28;20177;-67
2024/02/09 03:49:59;;;;;;;7.20;3.33;;;;;;;10.29;80.51;94124.03;5028554;28;20547;-67
2024/02/09 03:52:27;;;;;;;8.80;5.70;;;;;;;10.15;80.42;94116.41;5028485;28;20418;-67
2024/02/09 03:54:54;;;;;;;4.07;3.10;;;;;;;10.16;81.19;94123.31;5028105;28;21092;-67
2024/02/09 03:57:20;;;;;;;4.37;2.60;;;;;;;10.20;81.13;94124.72;5027966;28;20430;-66
2024/02/09 03:59:46;;;;;;;9.87;3.00;;;;;;;10.21;80.90;94125.59;5028199;28;20493;-67
2024/02/09 04:02:11;;;;;;;11.80;4.67;;;;;;;10.22;81.15;94133.31;5028179;28;20584;-67
2024/02/09 04:04:37;;;;;;;4.60;3.00;;;;;;;10.19;81.25;94146.66;5028214;28;20175;-67
2024/02/09 04:07:08;;;;;;;5.07;2.60;;;;;;;10.16;81.75;94144.31;5027821;28;20597;-68
2024/02/09 04:09:34;;;;;;;9.80;2.93;;;;;;;10.13;82.08;94139.28;5027824;28;20242;-67
2024/02/09 04:11:59;;;;;;;5.57;2.83;;;;;;;10.14;82.06;94141.78;5027864;28;20471;-66
2024/02/09 04:14:24;;;;;;;4.37;2.60;;;;;;;10.19;81.50;94138.81;5027836;28;20555;-67
2024/02/09 04:16:50;;;;;;;6.83;2.90;;;;;;;10.16;81.47;94149.53;5028097;28;20195;-67
2024/02/09 04:19:23;;;;;;;4.23;2.73;;;;;;;10.19;81.62;94144.06;5028019;28;20194;-68
2024/02/09 04:21:48;;;;;;;3.20;2.57;;;;;;;10.10;81.90;94144.75;5027972;28;20175;-67
2024/02/09 04:24:19;;;;;;;10.13;3.53;;;;;;;10.08;82.34;94142.25;5027961;28;20901;-67
2024/02/09 04:26:48;;;;;;;4.27;2.73;;;;;;;10.16;81.58;94142.50;5027723;28;20717;-67
2024/02/09 04:29:15;;;;;;;3.70;2.90;;;;;;;10.07;82.17;94137.97;5027654;28;21028;-68
2024/02/09 04:31:42;;;;;;;11.60;3.40;;;;;;;10.13;82.07;94141.91;5031441;28;20410;-69
2024/02/09 04:34:11;;;;;;;5.60;3.17;;;;;;;10.06;82.15;94138.09;5038733;28;21251;-68
2024/02/09 04:36:42;;;;;;;7.70;2.70;;;;;;;10.07;82.64;94142.38;5057334;28;20944;-68
2024/02/09 04:39:11;;;;;;;2.83;2.47;;;;;;;10.09;82.29;94143.09;5057926;28;20405;-67
2024/02/09 04:41:37;;;;;;;4.40;2.50;;;;;;;10.12;82.12;94135.00;5047482;28;20402;-67
2024/02/09 04:44:03;;;;;;;5.20;2.00;;;;;;;10.06;82.54;94138.94;5047261;28;20406;-67
2024/02/09 04:46:29;;;;;;;9.40;3.57;;;;;;;10.12;82.32;94137.63;5037946;28;20435;-67
2024/02/09 04:48:55;;;;;;;9.73;3.67;;;;;;;10.19;81.15;94130.94;5027229;28;21345;-67
2024/02/09 04:51:20;;;;;;;5.87;2.77;;;;;;;10.09;81.66;94133.47;5026838;28;20191;-67
2024/02/09 04:53:46;;;;;;;3.90;2.70;;;;;;;10.24;81.29;94125.34;5026906;28;20250;-69
2024/02/09 04:56:20;;;;;;;7.63;2.70;;;;;;;10.23;81.01;94136.75;5026741;28;20203;-67
2024/02/09 04:58:46;;;;;;;5.93;2.50;;;;;;;10.05;81.77;94136.44;5026810;28;20175;-68
2024/02/09 05:01:11;;;;;;;5.10;2.47;;;;;;;10.20;81.52;94118.66;5026880;28;20979;-67
2024/02/09 05:03:36;;;;;;;4.70;2.90;;;;;;;10.13;81.43;94111.31;5026790;28;20194;-68
2024/02/09 05:06:02;;;;;;;7.63;2.97;;;;;;;10.13;81.92;94099.97;5026746;28;20210;-68
2024/02/09 05:08:27;;;;;;;3.30;2.73;;;;;;;10.12;82.11;94106.16;5026942;28;20174;-69
2024/02/09 05:10:53;;;;;;;3.27;2.50;;;;;;;10.07;82.17;94089.97;5026569;28;20535;-68
2024/02/09 05:13:18;;;;;;;6.93;2.93;;;;;;;10.09;82.13;94085.47;5026752;28;20168;-67
2024/02/09 05:15:43;;;;;;;5.83;3.00;;;;;;;10.10;81.77;94089.72;5026716;28;20738;-67
2024/02/09 05:18:13;;;;;;;4.03;3.20;;;;;;;10.05;81.44;94077.00;5026746;28;20255;-67
2024/02/09 05:20:38;;;;;;;5.70;2.80;;;;;;;10.11;81.15;94081.75;5026892;28;20175;-67
2024/02/09 05:23:04;;;;;;;2.93;2.30;;;;;;;10.22;80.46;94075.66;5027135;28;20425;-67
2024/02/09 05:25:30;;;;;;;4.30;2.93;;;;;;;10.19;80.29;94075.91;5026829;28;20246;-66
2024/02/09 05:27:56;;;;;;;7.23;3.00;;;;;;;10.20;80.50;94066.25;5026648;28;20194;-68
2024/02/09 05:30:21;;;;;;;3.40;2.53;;;;;;;10.22;80.37;94075.66;5026272;28;20411;-67
2024/02/09 05:32:46;;;;;;;5.23;2.90;;;;;;;10.29;80.35;94078.66;5026243;28;20175;-68
2024/02/09 05:35:12;;;;;;;4.80;2.73;;;;;;;10.23;80.22;94079.09;5035597;28;20199;-68
2024/02/09 05:37:38;;;;;;;6.57;3.10;;;;;;;10.18;80.67;94074.22;5046017;28;20185;-66
2024/02/09 05:40:04;;;;;;;14.30;3.40;;;;;;;10.13;80.98;94077.22;5046003;28;20174;-68
2024/02/09 05:42:29;;;;;;;3.83;2.40;;;;;;;10.13;81.14;94074.63;5031504;28;20257;-67
2024/02/09 05:44:55;;;;;;;6.90;2.60;;;;;;;10.04;81.12;94072.72;5038701;28;20571;-67
2024/02/09 05:47:20;;;;;;;2.80;2.37;;;;;;;10.07;81.18;94075.09;5040713;28;20187;-68
2024/02/09 05:49:47;;;;;;;3.37;2.37;;;;;;;10.16;80.74;94081.41;5024811;28;20171;-67
2024/02/09 05:52:12;;;;;;;10.93;2.40;;;;;;;10.17;80.68;94083.03;5024912;28;20168;-67
2024/02/09 05:54:38;;;;;;;5.40;2.70;;;;;;;10.21;80.17;94081.03;5024580;28;20461;-68
2024/02/09 05:57:03;;;;;;;7.00;2.67;;;;;;;10.24;79.90;94080.78;5024574;28;21229;-68
2024/02/09 05:59:29;;;;;;;3.07;2.40;;;;;;;10.25;80.04;94090.28;5024504;28;20232;-67
2024/02/09 06:01:55;;;;;;;5.13;2.70;;;;;;;10.15;80.00;94084.97;5024892;28;20343;-67
2024/02/09 06:04:21;;;;;;;9.87;2.83;;;;;;;10.26;79.52;94089.34;5024835;28;20210;-67
2024/02/09 06:06:47;;;;;;;5.67;1.93;;;;;;;10.22;80.16;94086.13;5024511;28;20203;-67
2024/02/09 06:09:12;;;;;;;7.00;2.13;;;;;;;10.25;79.84;94085.91;5025118;28;20924;-66
2024/02/09 06:11:38;;;;;;;4.77;2.40;;;;;;;10.33;79.62;94093.19;5026446;28;20665;-67
2024/02/09 06:14:03;;;;;;;4.27;2.40;;;;;;;10.25;79.31;94085.91;5024973;28;20199;-67
2024/02/09 06:16:29;;;;;;;4.80;2.00;;;;;;;10.31;79.72;94095.91;5025051;28;20495;-68
2024/02/09 06:18:54;;;;;;;5.53;1.63;;;;;;;10.27;79.21;94091.00;5025120;28;20255;-67
2024/02/09 06:21:20;;;;;;;4.27;2.20;;;;;;;10.36;79.32;94087.69;5028398;28;20179;-67
2024/02/09 06:23:46;;;;;;;7.40;2.73;;;;;;;10.31;79.50;94088.06;5034614;28;20179;-69
2024/02/09 06:26:23;;;;;;;5.70;2.50;;;;;;;10.35;79.47;94086.88;5039164;28;20445;-68
2024/02/09 06:28:49;;;;;;;3.07;2.20;;;;;;;10.36;79.23;94087.69;5028747;28;21146;-67
2024/02/09 06:31:23;;;;;;;5.40;2.10;;;;;;;10.30;79.61;94086.41;5038979;28;20418;-67
2024/02/09 06:33:50;;;;;;;3.17;2.20;;;;;;;10.26;79.85;94089.34;5038053;28;20248;-68
2024/02/09 06:36:16;;;;;;;3.23;2.27;;;;;;;10.33;79.81;94093.19;5036279;28;20453;-68
2024/02/09 06:38:42;;;;;;;8.47;2.43;;;;;;;10.31;79.63;94089.84;5043263;28;20429;-66
2024/02/09 06:41:10;;;;;;;4.90;3.30;;;;;;;10.28;79.28;94090.06;5039849;28;21218;-69
2024/02/09 06:43:38;;;;;;;7.70;2.70;;;;;;;10.27;79.99;94089.22;5043756;28;20262;-66
2024/02/09 06:46:04;;;;;;;4.90;4.33;;;;;;;10.26;80.55;94092.81;5032533;28;21361;-67
2024/02/09 06:48:30;;;;;;;5.77;2.43;;;;;;;10.29;80.46;94091.75;5042445;28;20536;-66
2024/02/09 06:50:58;;;;;;;3.43;3.00;;;;;;;10.23;80.21;94092.19;5036737;28;20181;-68
2024/02/09 06:53:24;;;;;;;3.13;2.30;;;;;;;10.25;80.46;94095.53;5030195;28;20637;-68
2024/02/09 06:55:52;;;;;;;4.13;2.60;;;;;;;10.30;80.37;94091.66;5035192;28;20469;-66
2024/02/09 06:58:19;;;;;;;4.57;2.20;;;;;;;10.25;80.48;94088.53;5029750;28;20179;-69
2024/02/09 07:00:45;;;;;;;3.40;2.60;;;;;;;10.25;80.08;94083.28;5035341;28;20436;-67
2024/02/09 07:03:17;;;;;;;4.83;2.93;;;;;;;10.24;80.57;94092.09;5039627;28;20425;-66
2024/02/09 07:05:43;;;;;;;12.33;4.00;;;;;;;10.25;80.29;94093.78;5036779;28;20272;-70
2024/02/09 07:08:08;;;;;;;4.60;2.90;;;;;;;10.24;80.60;94097.34;5035702;28;20430;-68
2024/02/09 07:10:34;;;;;;;2.93;2.30;;;;;;;10.27;80.59;94086.59;5037383;28;20257;-68
2024/02/09 07:12:59;;;;;;;6.43;2.60;;;;;;;10.31;80.13;94085.44;5037537;28;20182;-67
2024/02/09 07:15:25;;;;;;;3.00;2.20;;;;;;;10.27;80.30;94083.16;5034575;28;20530;-69
2024/02/09 07:17:51;;;;;;;5.13;3.27;;;;;;;10.26;79.98;94074.47;5042989;28;20575;-69
2024/02/09 07:20:17;;;;;;;3.97;2.77;;;;;;;10.31;80.31;94071.50;5039019;28;20175;-67
2024/02/09 07:22:44;;;;;;;3.20;2.30;;;;;;;10.31;80.08;94077.56;5032404;28;20183;-70
2024/02/09 07:25:09;;;;;;;3.80;2.70;;;;;;;10.29;80.45;94079.47;5036249;28;20433;-67
2024/02/09 07:27:35;;;;;;;6.17;2.50;;;;;;;10.29;80.62;94074.22;5036444;28;20570;-66
2024/02/09 07:30:01;;;;;;;11.50;2.50;;;;;;;10.28;80.24;94079.59;5032356;28;20248;-68
2024/02/09 07:32:26;;;;;;;6.77;3.60;;;;;;;10.28;80.30;94080.44;5034160;28;20733;-65
2024/02/09 07:34:55;;;;;;;4.37;2.30;;;;;;;10.36;79.27;94082.44;5037307;28;20457;-67
2024/02/09 07:37:24;;;;;;;4.47;2.97;;;;;;;10.26;80.46;94084.13;5037204;28;20206;-67
2024/02/09 07:39:50;;;;;;;5.60;3.13;;;;;;;10.31;80.25;94074.13;5038729;28;20537;-67
2024/02/09 07:42:17;;;;;;;4.77;2.47;;;;;;;10.31;80.13;94063.63;5032563;28;20497;-69
2024/02/09 07:44:43;;;;;;;6.33;3.17;;;;;;;10.31;79.92;94064.47;5033549;28;21119;-67
2024/02/09 07:47:10;;;;;;;4.47;3.67;;;;;;;10.45;79.69;94062.53;5043311;28;20462;-68
2024/02/09 07:49:35;;;;;;;7.20;3.20;;;;;;;10.40;79.65;94068.16;5041137;28;20428;-69
2024/02/09 07:52:02;;;;;;;6.50;3.27;;;;;;;10.38;79.92;94065.63;5042694;28;20181;-68
2024/02/09 07:54:31;;;;;;;3.73;2.40;;;;;;;10.30;80.63;94067.19;5039399;28;20641;-67
2024/02/09 07:56:57;;;;;;;3.00;2.57;;;;;;;10.31;80.66;94072.31;5039916;28;20446;-69
2024/02/09 07:59:23;;;;;;;20.90;4.50;;;;;;;10.37;80.34;94068.41;5047001;28;20421;-67
2024/02/09 08:01:51;;;;;;;7.67;3.20;;;;;;;10.36;80.37;94064.91;5047536;28;20435;-68
2024/02/09 08:04:17;;;;;;;24.70;4.87;;;;;;;10.25;80.78;94070.19;5036880;28;20432;-69
2024/02/09 08:06:44;;;;;;;5.70;3.07;;;;;;;10.32;80.41;94065.28;5043256;28;20453;-68
2024/02/09 08:09:10;;;;;;;6.07;3.03;;;;;;;10.41;80.25;94061.09;5035237;28;20563;-68
2024/02/09 08:11:36;;;;;;;7.33;3.20;;;;;;;10.38;80.37;94075.28;5038700;28;20425;-68
2024/02/09 08:14:02;;;;;;;4.60;2.93;;;;;;;10.36;80.28;94058.84;5038322;28;20183;-68
2024/02/09 08:16:27;;;;;;;8.53;3.87;;;;;;;10.46;79.58;94067.63;5032107;28;20465;-68
2024/02/09 08:18:53;;;;;;;3.50;3.20;;;;;;;10.38;79.59;94051.69;5036926;28;20834;-69
2024/02/09 08:21:19;;;;;;;6.70;3.03;;;;;;;10.59;79.04;94055.19;5028782;28;20175;-69
2024/02/09 08:23:44;;;;;;;11.60;3.27;;;;;;;10.64;79.08;94061.88;5028344;28;20634;-69
2024/02/09 08:26:10;;;;;;;5.93;3.63;;;;;;;10.64;79.29;94048.75;5028034;28;20661;-66
2024/02/09 08:28:43;;;;;;;3.50;2.50;;;;;;;10.77;78.07;94054.63;5029522;28;20294;-66
2024/02/09 08:31:14;;;;;;;4.10;3.30;;;;;;;10.75;78.92;94056.59;5031984;28;20187;-66
2024/02/09 08:33:40;;;;;;;4.43;2.90;;;;;;;10.79;78.54;94057.97;5032066;28;20438;-67
2024/02/09 08:36:06;;;;;;;5.83;5.23;;;;;;;10.91;78.23;94058.75;5040529;28;20496;-66
2024/02/09 08:38:32;;;;;;;5.87;4.20;;;;;;;10.90;78.67;94062.34;5041148;28;20192;-68
2024/02/09 08:40:58;;;;;;;6.63;3.50;;;;;;;10.85;78.30;94054.03;5038898;28;20761;-68
2024/02/09 08:43:24;;;;;;;4.40;3.50;;;;;;;10.90;78.61;94055.31;5037407;28;20444;-70
2024/02/09 08:45:49;;;;;;;6.70;3.77;;;;;;;10.95;78.47;94049.69;5029830;28;20445;-66
2024/02/09 08:48:15;;;;;;;3.93;2.93;;;;;;;10.98;78.15;94052.91;5038976;28;20972;-67
2024/02/09 08:50:40;;;;;;;8.80;4.10;;;;;;;10.96;77.83;94046.94;5040273;28;20175;-67
2024/02/09 08:53:06;;;;;;;4.33;3.70;;;;;;;10.93;78.27;94060.28;5042769;28;20182;-68
2024/02/09 08:55:31;;;;;;;3.57;3.13;;;;;;;10.90;78.49;94055.31;5037306;28;20320;-67
2024/02/09 08:57:57;;;;;;;6.60;3.20;;;;;;;10.94;77.66;94061.16;5035848;28;20330;-67
2024/02/09 09:00:24;;;;;;;4.63;3.60;;;;;;;10.90;78.17;94059.72;5030198;28;20186;-67
2024/02/09 09:02:49;;;;;;;3.90;2.87;;;;;;;10.94;78.31;94056.72;5037945;28;20214;-67
2024/02/09 09:05:15;;;;;;;4.20;3.20;;;;;;;10.92;78.42;94060.44;5039002;28;20533;-66
2024/02/09 09:07:40;;;;;;;6.20;4.40;;;;;;;10.88;78.58;94051.97;5041882;28;20642;-67
2024/02/09 09:10:06;;;;;;;9.60;4.13;;;;;;;10.91;78.86;94051.72;5036809;28;20661;-67
2024/02/09 09:12:31;;;;;;;4.00;3.50;;;;;;;10.93;78.39;94051.59;5035660;28;20658;-67
2024/02/09 09:14:58;;;;;;;6.23;3.80;;;;;;;10.97;77.35;94040.72;5029547;28;20342;-67
2024/02/09 09:17:24;;;;;;;10.70;3.93;;;;;;;10.93;78.27;94043.72;5031162;28;20689;-67
2024/02/09 09:19:49;;;;;;;5.33;4.60;;;;;;;10.94;77.43;94034.91;5032592;28;20432;-67
2024/02/09 09:22:15;;;;;;;5.43;4.00;;;;;;;10.84;77.97;94026.13;5034773;28;20547;-67
2024/02/09 09:24:40;;;;;;;13.00;5.63;;;;;;;10.90;77.76;94021.19;5035194;28;20191;-67
2024/02/09 09:27:08;;;;;;;6.20;4.43;;;;;;;10.88;78.80;94020.50;5028431;28;20203;-67
2024/02/09 09:29:33;;;;;;;8.80;4.40;;;;;;;10.90;78.47;94009.88;5030612;28;20261;-67
2024/02/09 09:32:00;;;;;;;6.90;4.30;;;;;;;10.91;77.97;94016.78;5032057;28;20855;-67
2024/02/09 09:34:26;;;;;;;11.00;4.20;;;;;;;10.83;78.61;94016.59;5044985;28;20218;-66
2024/02/09 09:36:52;;;;;;;6.27;4.70;;;;;;;10.81;78.35;94025.41;5037274;28;20967;-68
2024/02/09 09:39:18;;;;;;;6.30;4.00;;;;;;;10.99;77.94;94024.84;5045387;28;20178;-68
2024/02/09 09:41:44;;;;;;;5.93;4.23;;;;;;;10.90;78.02;94030.88;5052813;28;20410;-68
2024/02/09 09:44:09;;;;;;;6.00;4.70;;;;;;;10.95;78.55;94026.06;5045350;28;20219;-69
2024/02/09 09:46:45;;;;;;;9.57;6.10;;;;;;;10.81;78.84;94021.97;5047023;28;20207;-67
2024/02/09 09:49:12;;;;;;;5.60;4.20;;;;;;;10.81;78.49;94029.81;5042445;28;20652;-68
2024/02/09 09:51:40;;;;;;;12.67;4.97;;;;;;;10.85;78.72;94025.16;5036109;28;20485;-67
2024/02/09 09:54:08;;;;;;;5.33;4.70;;;;;;;10.84;79.11;94016.44;5039990;28;20460;-67
2024/02/09 09:56:36;;;;;;;14.97;4.90;;;;;;;10.90;78.66;94018.56;5040152;28;20460;-68
2024/02/09 09:59:03;;;;;;;5.77;4.83;;;;;;;10.95;78.38;94024.25;5046308;28;20521;-68
2024/02/09 10:01:29;;;;;;;11.87;5.37;;;;;;;10.97;78.03;94019.72;5049337;28;20457;-67
2024/02/09 10:03:55;;;;;;;6.40;5.00;;;;;;;11.07;78.32;94025.03;5043469;28;20433;-69
2024/02/09 10:06:23;;;;;;;6.27;5.10;;;;;;;11.16;77.88;94024.25;5043943;28;20592;-67
2024/02/09 10:08:49;;;;;;;5.47;4.63;;;;;;;11.17;77.93;94030.34;5033705;28;20429;-67
2024/02/09 10:11:18;;;;;;;5.27;4.60;;;;;;;11.22;77.24;94023.75;5034959;28;20817;-67
2024/02/09 10:13:43;;;;;;;12.40;5.57;;;;;;;11.28;78.27;94022.38;5034594;28;20317;-67
2024/02/09 10:16:09;;;;;;;8.43;5.40;;;;;;;11.26;77.92;94034.00;5038804;28;20465;-67
2024/02/09 10:18:36;;;;;;;10.77;6.23;;;;;;;11.38;77.40;94032.94;5032728;28;20186;-67
2024/02/09 10:21:02;;;;;;;7.20;4.33;;;;;;;11.51;77.27;94033.56;5032289;28;20537;-67
2024/02/09 10:23:29;;;;;;;8.00;4.43;;;;;;;11.74;76.63;94041.25;5036070;28;20434;-67
2024/02/09 10:25:58;;;;;;;9.07;4.43;;;;;;;11.82;75.79;94034.38;5034783;28;20630;-67
2024/02/09 10:28:24;;;;;;;6.13;4.60;;;;;;;11.92;75.29;94025.75;5039403;28;20421;-67
2024/02/09 10:30:52;;;;;;;8.13;5.17;;;;;;;12.03;75.08;94028.25;5038461;28;20441;-67
2024/02/09 10:33:20;;;;;;;8.37;5.20;;;;;;;12.06;75.17;94025.34;5027992;28;20182;-66
2024/02/09 10:35:46;;;;;;;7.23;4.87;;;;;;;12.05;75.53;94010.56;5038360;28;20487;-67
2024/02/09 10:38:12;;;;;;;7.10;4.97;;;;;;;12.06;75.23;94015.66;5034973;28;20438;-67
2024/02/09 10:40:37;;;;;;;14.87;5.10;;;;;;;12.12;74.47;94023.97;5034155;28;20548;-67
2024/02/09 10:43:04;;;;;;;7.33;4.90;;;;;;;12.11;74.28;94014.44;5038553;28;20237;-67
2024/02/09 10:45:32;;;;;;;11.73;5.20;;;;;;;12.07;74.77;94025.25;5036208;28;20250;-68
2024/02/09 10:47:59;;;;;;;5.50;4.10;;;;;;;12.07;73.59;94022.59;5038002;28;20438;-68
2024/02/09 10:50:30;;;;;;;8.53;4.20;;;;;;;12.03;73.60;94008.06;5039649;28;20441;-67
2024/02/09 10:52:59;;;;;;;10.27;4.63;;;;;;;12.06;73.72;94012.22;5032862;28;20429;-67
2024/02/09 10:55:37;;;;;;;4.90;4.40;;;;;;;12.12;73.55;94018.72;5034623;28;20968;-67
2024/02/09 10:58:04;;;;;;;4.37;3.93;;;;;;;12.20;72.38;94011.00;5041233;28;20425;-67
2024/02/09 11:00:31;;;;;;;5.07;4.10;;;;;;;12.08;73.47;94000.59;5038195;28;21233;-67
2024/02/09 11:02:57;;;;;;;7.90;4.50;;;;;;;12.18;72.50;94002.41;5025485;28;20492;-67
2024/02/09 11:05:23;;;;;;;6.07;5.47;;;;;;;12.12;72.82;94001.16;5031950;28;20454;-67
2024/02/09 11:07:51;;;;;;;5.23;4.50;;;;;;;12.20;73.68;93987.34;5036840;28;20340;-67
2024/02/09 11:10:17;;;;;;;9.80;4.50;;;;;;;12.17;72.79;93998.97;5039486;28;20434;-67
2024/02/09 11:12:43;;;;;;;9.03;3.93;;;;;;;12.14;73.22;93993.13;5038182;28;20444;-66
2024/02/09 11:15:13;;;;;;;8.93;4.90;;;;;;;12.11;72.81;93985.53;5033177;28;20206;-68
2024/02/09 11:17:49;;;;;;;13.13;5.10;;;;;;;12.20;73.22;93990.78;5039416;28;20430;-66
2024/02/09 11:20:15;;;;;;;7.03;4.53;;;;;;;12.17;73.57;93977.09;5025363;28;20430;-67
2024/02/09 11:22:47;;;;;;;6.40;4.27;;;;;;;12.32;72.96;93980.16;5033243;28;20437;-67
2024/02/09 11:25:15;;;;;;;10.70;4.07;;;;;;;12.29;73.11;93966.31;5034390;28;20426;-67
2024/02/09 11:27:51;;;;;;;12.77;5.23;;;;;;;12.35;72.64;93964.09;5033178;28;20799;-67
2024/02/09 11:30:17;;;;;;;9.33;5.20;;;;;;;12.35;73.19;93964.09;5034195;28;20515;-67
2024/02/09 11:32:46;;;;;;;5.90;4.33;;;;;;;12.34;72.89;93962.44;5030164;28;20476;-67
2024/02/09 11:35:13;;;;;;;5.13;4.63;;;;;;;12.43;72.94;93959.00;5039600;28;20445;-67
2024/02/09 11:37:43;;;;;;;8.40;5.63;;;;;;;12.47;73.72;93947.19;5030633;28;20448;-66
2024/02/09 11:40:09;;;;;;;6.10;4.90;;;;;;;12.43;72.63;93941.41;5029424;28;20430;-67
2024/02/09 11:42:34;;;;;;;5.93;4.80;;;;;;;12.44;72.52;93942.22;5038177;28;20433;-66
2024/02/09 11:45:02;;;;;;;7.00;4.73;;;;;;;12.44;72.23;93934.34;5031408;28;20179;-66
2024/02/09 11:47:27;;;;;;;10.20;5.27;;;;;;;12.50;72.58;93941.69;5042908;28;20214;-67
2024/02/09 11:49:53;;;;;;;10.57;4.93;;;;;;;12.62;72.65;93935.28;5044605;28;20899;-66
2024/02/09 11:52:19;;;;;;;9.07;5.47;;;;;;;12.63;72.28;93936.13;5034644;28;20183;-68
2024/02/09 11:54:46;;;;;;;8.23;5.10;;;;;;;12.73;71.70;93929.03;5043067;28;20456;-68
2024/02/09 11:57:13;;;;;;;7.77;5.47;;;;;;;12.79;71.89;93927.66;5035158;28;20203;-67
2024/02/09 11:59:38;;;;;;;10.37;6.10;;;;;;;12.82;72.09;93930.00;5038587;28;20447;-67
2024/02/09 12:02:04;;;;;;;7.33;5.50;;;;;;;13.10;71.45;93944.06;5041872;28;20440;-67
2024/02/09 12:04:31;;;;;;;10.07;5.30;;;;;;;12.96;71.20;93947.16;5036696;28;20210;-66
2024/02/09 12:06:59;;;;;;;5.30;4.20;;;;;;;12.91;71.66;93951.03;5034633;28;20226;-66
2024/02/09 12:09:25;;;;;;;7.50;4.37;;;;;;;12.97;70.61;93943.53;5037452;28;20433;-69
2024/02/09 12:11:51;;;;;;;4.33;3.93;;;;;;;12.99;70.54;93941.59;5046307;28;20516;-68
2024/02/09 12:14:17;;;;;;;6.30;4.63;;;;;;;12.88;71.44;93938.16;5036286;28;20468;-67
2024/02/09 12:16:43;;;;;;;8.70;4.57;;;;;;;12.83;71.30;93934.31;5035955;28;20561;-67
2024/02/09 12:19:08;;;;;;;8.70;4.40;;;;;;;12.86;71.39;93931.38;5042774;28;20659;-68
2024/02/09 12:21:34;;;;;;;4.47;4.03;;;;;;;12.89;70.73;93933.72;5034172;28;20550;-69
2024/02/09 12:23:59;;;;;;;7.77;4.60;;;;;;;12.84;69.63;93928.06;5037397;28;20202;-69
2024/02/09 12:26:25;;;;;;;5.47;4.33;;;;;;;12.64;71.50;93922.84;5050685;28;20706;-68
2024/02/09 12:28:50;;;;;;;4.63;4.10;;;;;;;12.72;71.73;93924.75;5041369;28;20245;-69
2024/02/09 12:31:16;;;;;;;6.37;4.77;;;;;;;12.55;72.34;93931.56;5034379;28;20270;-67
2024/02/09 12:33:46;;;;;;;6.13;3.70;;;;;;;12.54;72.07;93926.44;5035675;28;20180;-69
2024/02/09 12:36:20;;;;;;;5.83;4.63;;;;;;;12.48;73.57;93927.84;5038787;28;20878;-68
2024/02/09 12:38:49;;;;;;;5.83;4.40;;;;;;;12.54;73.29;93926.44;5034034;28;20430;-70
2024/02/09 12:41:15;;;;;;;5.87;4.27;;;;;;;12.48;72.52;93918.13;5040772;28;20426;-70
2024/02/09 12:43:44;;;;;;;91.73;12.33;;;;;;;12.50;73.02;93915.38;5042965;28;21080;-68
2024/02/09 12:46:10;;;;;;;8.53;4.10;;;;;;;12.43;72.62;93914.28;5043737;28;20235;-69
2024/02/09 12:48:40;;;;;;;8.00;4.67;;;;;;;12.29;73.74;93910.25;5043339;28;20523;-68
2024/02/09 12:51:05;;;;;;;9.20;5.10;;;;;;;12.36;73.32;93908.72;5042627;28;20638;-68
2024/02/09 12:53:34;;;;;;;9.33;5.50;;;;;;;12.29;73.78;93908.47;5037436;28;20468;-69
2024/02/09 12:56:00;;;;;;;5.40;4.10;;;;;;;12.33;73.33;93906.41;5039347;28;20260;-68
2024/02/09 12:58:25;;;;;;;7.77;4.67;;;;;;;12.10;74.34;93918.97;5037453;28;20509;-68
2024/02/09 13:00:53;;;;;;;6.90;5.17;;;;;;;12.30;73.24;93904.03;5045037;28;20179;-68
2024/02/09 13:03:20;;;;;;;5.97;4.70;;;;;;;12.31;73.83;93903.06;5039829;28;20196;-70
2024/02/09 13:05:47;;;;;;;4.27;3.80;;;;;;;12.16;74.46;93894.75;5038420;28;20514;-69
2024/02/09 13:08:13;;;;;;;8.10;4.10;;;;;;;12.21;74.10;93896.97;5036384;28;20475;-69
2024/02/09 13:10:39;;;;;;;6.57;4.87;;;;;;;12.28;73.57;93892.81;5040217;28;20444;-69
2024/02/09 13:13:06;;;;;;;16.07;6.73;;;;;;;12.44;73.47;93895.69;5045117;28;20524;-69
2024/02/09 13:15:35;;;;;;;34.70;7.17;;;;;;;12.26;73.67;93894.78;5034906;28;20206;-69
2024/02/09 13:18:01;;;;;;;9.67;4.67;;;;;;;12.25;73.62;93896.53;5029329;28;20422;-70